Time;durP1;ratioP1;P1;durP2;ratioP2;P2;SDS_P1;SDS_P2;PMS_P1;PMS_P2;Temp;Humidity;BMP_temperature;BMP_pressure;BME280_temperature;BME280_humidity;BME280_pressure;Samples;Min_cycle;Max_cycle;Signal;HPM_P1;HPM_P2
2022/07/31 00:00:29;;;;;;;3.42;1.60;;;24.20;66.20;;;;;;5032926;28;20053;-75
2022/07/31 00:02:56;;;;;;;4.85;2.25;;;24.20;66.80;;;;;;5033166;28;20427;-75
2022/07/31 00:05:23;;;;;;;3.25;1.42;;;24.10;66.00;;;;;;5033324;28;20029;-74
2022/07/31 00:07:48;;;;;;;4.57;1.95;;;24.10;66.10;;;;;;5033240;28;20041;-74
2022/07/31 00:10:14;;;;;;;3.22;1.80;;;24.10;66.30;;;;;;5033365;28;20140;-74
2022/07/31 00:12:40;;;;;;;4.97;2.40;;;24.10;66.40;;;;;;5033133;28;20499;-75
2022/07/31 00:15:08;;;;;;;5.13;1.83;;;24.10;66.40;;;;;;5033112;28;20040;-75
2022/07/31 00:17:36;;;;;;;4.20;1.70;;;24.10;66.30;;;;;;5033306;28;20030;-75
2022/07/31 00:20:02;;;;;;;5.07;1.80;;;24.10;66.30;;;;;;5033253;28;20091;-74
2022/07/31 00:22:28;;;;;;;5.28;1.77;;;24.20;66.30;;;;;;5033015;28;20053;-75
2022/07/31 00:24:54;;;;;;;5.90;1.88;;;24.20;66.40;;;;;;5032814;28;20128;-75
2022/07/31 00:27:19;;;;;;;2.42;1.27;;;24.10;66.60;;;;;;5032822;28;20037;-75
2022/07/31 00:29:45;;;;;;;4.15;1.45;;;24.10;66.70;;;;;;5033219;28;20376;-74
2022/07/31 00:32:11;;;;;;;6.72;2.10;;;24.10;66.70;;;;;;5032767;28;20092;-75
2022/07/31 00:34:36;;;;;;;2.95;1.55;;;24.10;66.70;;;;;;5032921;28;20539;-74
2022/07/31 00:37:02;;;;;;;2.55;1.65;;;24.10;66.80;;;;;;5033161;28;20021;-75
2022/07/31 00:39:29;;;;;;;2.97;1.98;;;24.10;66.80;;;;;;5032788;28;20029;-74
2022/07/31 00:41:55;;;;;;;4.90;1.70;;;24.10;67.10;;;;;;5033097;28;20056;-74
2022/07/31 00:44:21;;;;;;;3.05;1.40;;;24.00;67.30;;;;;;5033076;28;20456;-75
2022/07/31 00:46:46;;;;;;;6.28;1.92;;;24.00;67.40;;;;;;5032607;28;20048;-75
2022/07/31 00:49:12;;;;;;;3.38;1.70;;;23.90;67.40;;;;;;5032755;28;20018;-76
2022/07/31 00:51:38;;;;;;;4.63;1.98;;;23.90;67.40;;;;;;5032693;28;20029;-76
2022/07/31 00:54:09;;;;;;;6.50;1.77;;;23.90;67.40;;;;;;5032702;28;20465;-76
2022/07/31 00:56:35;;;;;;;2.90;1.50;;;24.00;67.40;;;;;;5032776;28;20038;-76
2022/07/31 00:59:01;;;;;;;3.30;1.40;;;24.00;67.40;;;;;;5032355;28;20497;-75
2022/07/31 01:01:26;;;;;;;2.92;1.30;;;24.10;67.40;;;;;;5032562;28;20029;-76
2022/07/31 01:03:52;;;;;;;3.75;1.48;;;24.10;67.30;;;;;;5032867;28;20033;-74
2022/07/31 01:06:18;;;;;;;3.28;1.67;;;24.10;67.40;;;;;;5032718;28;20041;-74
2022/07/31 01:08:44;;;;;;;5.10;1.98;;;24.10;67.40;;;;;;5033348;28;20029;-75
2022/07/31 01:11:26;;;;;;;4.40;1.40;;;24.10;67.40;;;;;;5036279;28;20044;-75
2022/07/31 01:14:10;;;;;;;;;;;24.10;67.40;;;;;;5036543;28;20045;-75
2022/07/31 01:16:41;;;;;;;4.32;1.60;;;24.00;67.60;;;;;;5036318;28;19959;-75
2022/07/31 01:19:26;;;;;;;5.78;1.70;;;24.00;67.90;;;;;;5036148;28;20030;-75
2022/07/31 01:22:19;;;;;;;4.07;1.60;;;23.90;68.50;;;;;;5035747;28;20061;-75
2022/07/31 01:25:19;;;;;;;3.88;1.25;;;23.80;68.80;;;;;;5036150;28;20037;-75
2022/07/31 01:28:06;;;;;;;2.28;1.05;;;23.80;68.90;;;;;;5035675;28;20029;-75
2022/07/31 01:30:38;;;;;;;5.15;1.60;;;23.80;69.30;;;;;;5035584;28;20363;-75
2022/07/31 01:33:19;;;;;;;2.30;1.15;;;23.80;70.10;;;;;;5036132;28;20431;-75
2022/07/31 01:35:52;;;;;;;3.72;1.10;;;23.70;70.40;;;;;;5036004;28;20028;-75
2022/07/31 01:38:30;;;;;;;5.13;1.20;;;23.70;70.40;;;;;;5035713;28;20385;-75
2022/07/31 01:41:00;;;;;;;2.22;1.15;;;23.80;70.50;;;;;;5035646;28;20021;-75
2022/07/31 01:43:31;;;;;;;1.70;0.88;;;23.80;70.50;;;;;;5035775;28;20028;-75
2022/07/31 01:45:59;;;;;;;4.72;1.42;;;23.80;70.90;;;;;;5035687;28;20096;-75
2022/07/31 01:48:26;;;;;;;3.08;1.45;;;23.70;71.60;;;;;;5035440;28;20057;-75
2022/07/31 01:50:54;;;;;;;3.53;1.20;;;23.70;71.60;;;;;;5035717;28;20021;-75
2022/07/31 01:53:22;;;;;;;1.83;1.42;;;23.70;71.60;;;;;;5035071;28;20100;-75
2022/07/31 01:55:51;;;;;;;2.55;1.40;;;23.70;71.50;;;;;;5035646;28;20096;-75
2022/07/31 01:58:19;;;;;;;1.85;1.00;;;23.80;71.50;;;;;;5035389;28;20032;-75
2022/07/31 02:00:46;;;;;;;4.90;1.20;;;23.80;71.40;;;;;;5035361;28;20036;-75
2022/07/31 02:03:13;;;;;;;2.83;1.10;;;23.80;71.20;;;;;;5035283;28;20029;-75
2022/07/31 02:05:41;;;;;;;3.83;1.17;;;23.90;71.20;;;;;;5035255;28;20409;-75
2022/07/31 02:08:08;;;;;;;4.68;1.20;;;23.90;70.90;;;;;;5035355;28;20485;-75
2022/07/31 02:10:35;;;;;;;2.10;1.23;;;23.90;70.80;;;;;;5035220;28;20030;-75
2022/07/31 02:13:04;;;;;;;3.10;1.08;;;23.80;70.50;;;;;;5035368;28;20029;-75
2022/07/31 02:15:31;;;;;;;1.95;0.90;;;23.90;70.50;;;;;;5034982;28;20029;-75
2022/07/31 02:17:58;;;;;;;3.15;1.13;;;23.90;70.40;;;;;;5034956;28;20461;-75
2022/07/31 02:20:25;;;;;;;3.15;0.90;;;23.90;70.30;;;;;;5034806;28;20026;-75
2022/07/31 02:22:52;;;;;;;1.50;1.10;;;23.90;70.20;;;;;;5034784;28;20413;-75
2022/07/31 02:25:18;;;;;;;2.63;1.20;;;23.90;70.20;;;;;;5035019;28;20037;-75
2022/07/31 02:27:44;;;;;;;2.88;1.30;;;23.90;70.50;;;;;;5034755;28;20033;-75
2022/07/31 02:30:11;;;;;;;5.75;1.50;;;23.90;70.90;;;;;;5034551;28;20026;-75
2022/07/31 02:32:38;;;;;;;3.35;1.40;;;23.70;71.40;;;;;;5034925;28;20032;-75
2022/07/31 02:35:06;;;;;;;7.15;1.83;;;23.60;71.80;;;;;;5034515;28;20071;-75
2022/07/31 02:37:35;;;;;;;2.28;1.33;;;23.60;72.10;;;;;;5034861;28;20040;-75
2022/07/31 02:40:02;;;;;;;3.50;1.00;;;23.50;72.10;;;;;;5034171;28;20022;-75
2022/07/31 02:42:29;;;;;;;2.65;1.10;;;23.50;72.00;;;;;;5034393;28;20445;-75
2022/07/31 02:44:55;;;;;;;3.33;1.02;;;23.60;71.90;;;;;;5034445;28;20025;-75
2022/07/31 02:47:22;;;;;;;3.35;1.42;;;23.60;71.90;;;;;;5034268;28;20488;-75
2022/07/31 02:49:48;;;;;;;2.72;0.95;;;23.50;72.50;;;;;;5034598;28;20034;-75
2022/07/31 02:52:14;;;;;;;3.05;1.33;;;23.50;72.70;;;;;;5034587;28;20361;-75
2022/07/31 02:54:43;;;;;;;1.67;0.80;;;23.40;72.60;;;;;;5034296;28;20027;-75
2022/07/31 02:57:09;;;;;;;2.97;1.10;;;23.50;72.50;;;;;;5034324;28;20024;-75
2022/07/31 02:59:38;;;;;;;4.60;0.98;;;23.60;72.40;;;;;;5034146;28;20025;-75
2022/07/31 03:02:04;;;;;;;3.38;1.17;;;23.60;72.30;;;;;;5016190;28;20465;-76
2022/07/31 03:04:30;;;;;;;2.25;1.23;;;23.60;72.30;;;;;;5033842;28;20041;-75
2022/07/31 03:06:58;;;;;;;3.60;1.40;;;23.60;72.60;;;;;;5033833;28;20080;-75
2022/07/31 03:09:23;;;;;;;2.95;1.42;;;23.50;72.60;;;;;;5034173;28;20033;-75
2022/07/31 03:11:49;;;;;;;3.47;1.00;;;23.50;72.90;;;;;;5033988;28;20043;-75
2022/07/31 03:14:16;;;;;;;2.72;1.20;;;23.40;72.90;;;;;;5034123;28;20087;-75
2022/07/31 03:16:42;;;;;;;4.63;1.00;;;23.50;72.90;;;;;;5033909;28;20071;-75
2022/07/31 03:19:08;;;;;;;3.22;0.93;;;23.50;72.70;;;;;;5033831;28;20033;-76
2022/07/31 03:21:34;;;;;;;1.35;0.70;;;23.60;72.50;;;;;;5033705;28;20070;-75
2022/07/31 03:24:02;;;;;;;3.13;0.80;;;23.60;72.40;;;;;;5034015;28;20041;-75
2022/07/31 03:26:28;;;;;;;3.20;1.08;;;23.60;72.30;;;;;;5033600;28;20550;-76
2022/07/31 03:28:53;;;;;;;2.60;1.00;;;23.60;72.30;;;;;;5033689;28;20072;-75
2022/07/31 03:31:19;;;;;;;2.05;1.15;;;23.60;72.40;;;;;;5032946;28;20017;-75
2022/07/31 03:33:45;;;;;;;2.60;1.02;;;23.60;72.30;;;;;;5033812;28;20044;-75
2022/07/31 03:36:14;;;;;;;3.22;1.08;;;23.60;72.40;;;;;;5033860;28;20029;-75
2022/07/31 03:38:39;;;;;;;2.90;1.30;;;23.60;72.30;;;;;;5033436;28;20033;-75
2022/07/31 03:41:05;;;;;;;2.00;1.27;;;23.60;72.60;;;;;;5033793;28;20099;-75
2022/07/31 03:43:32;;;;;;;4.45;1.83;;;23.50;73.30;;;;;;5033180;28;20358;-75
2022/07/31 03:45:59;;;;;;;4.63;1.30;;;23.50;73.70;;;;;;5033528;28;20044;-75
2022/07/31 03:48:26;;;;;;;4.28;1.33;;;23.50;74.00;;;;;;5033491;28;20037;-75
2022/07/31 03:50:52;;;;;;;3.08;1.45;;;23.40;74.20;;;;;;5033395;28;20021;-75
2022/07/31 03:53:17;;;;;;;3.08;1.50;;;23.40;74.50;;;;;;5033157;28;20068;-75
2022/07/31 03:55:44;;;;;;;2.92;1.50;;;23.40;74.60;;;;;;5033323;28;20033;-75
2022/07/31 03:58:11;;;;;;;4.47;1.20;;;23.40;74.70;;;;;;5033225;28;20030;-74
2022/07/31 04:00:37;;;;;;;2.15;1.50;;;23.40;74.80;;;;;;5033528;28;20029;-75
2022/07/31 04:03:08;;;;;;;2.85;1.63;;;23.30;75.30;;;;;;5033171;28;20404;-74
2022/07/31 04:05:34;;;;;;;2.60;1.83;;;23.20;76.10;;;;;;5033029;28;20029;-75
2022/07/31 04:08:00;;;;;;;4.30;2.10;;;23.10;76.30;;;;;;5033090;28;20107;-74
2022/07/31 04:10:26;;;;;;;2.95;2.10;;;23.10;76.40;;;;;;5033163;28;20026;-74
2022/07/31 04:12:52;;;;;;;3.28;2.95;;;23.00;76.20;;;;;;5033095;28;20072;-74
2022/07/31 04:15:17;;;;;;;3.95;2.50;;;23.00;76.50;;;;;;5033252;28;20053;-74
2022/07/31 04:17:43;;;;;;;3.30;2.40;;;23.00;76.50;;;;;;5033114;28;20486;-75
2022/07/31 04:20:10;;;;;;;4.97;3.17;;;23.00;77.40;;;;;;5033079;28;20380;-75
2022/07/31 04:22:36;;;;;;;4.88;2.33;;;22.90;77.10;;;;;;5032961;28;20409;-74
2022/07/31 04:25:03;;;;;;;2.95;2.05;;;22.90;77.40;;;;;;5033101;28;20022;-75
2022/07/31 04:27:29;;;;;;;4.28;2.55;;;22.80;77.40;;;;;;5032552;28;20037;-75
2022/07/31 04:29:55;;;;;;;4.20;2.50;;;22.80;77.70;;;;;;5033173;28;20465;-75
2022/07/31 04:32:22;;;;;;;5.20;2.40;;;22.80;77.70;;;;;;5033089;28;20030;-75
2022/07/31 04:34:48;;;;;;;4.72;3.00;;;22.80;77.80;;;;;;5032853;28;20021;-75
2022/07/31 04:37:15;;;;;;;4.38;2.67;;;22.80;78.20;;;;;;5033027;28;20076;-75
2022/07/31 04:39:40;;;;;;;3.83;2.45;;;22.80;78.60;;;;;;5033095;28;20099;-75
2022/07/31 04:42:06;;;;;;;7.63;3.30;;;22.80;78.80;;;;;;5032848;28;20457;-75
2022/07/31 04:44:31;;;;;;;5.90;3.47;;;22.80;79.10;;;;;;5036708;28;20025;-75
2022/07/31 04:46:59;;;;;;;7.07;3.35;;;22.70;79.30;;;;;;5036749;28;20026;-74
2022/07/31 04:49:24;;;;;;;5.40;4.15;;;22.70;79.60;;;;;;5036499;28;20037;-75
2022/07/31 04:51:50;;;;;;;5.78;4.20;;;22.70;79.90;;;;;;5036608;28;20029;-74
2022/07/31 04:54:15;;;;;;;8.27;4.07;;;22.70;80.00;;;;;;5036069;28;20476;-74
2022/07/31 04:56:41;;;;;;;8.85;4.88;;;22.60;80.20;;;;;;5036192;28;20026;-75
2022/07/31 04:59:10;;;;;;;9.07;5.13;;;22.60;80.60;;;;;;5036498;28;20017;-75
2022/07/31 05:01:37;;;;;;;9.40;4.78;;;22.50;81.00;;;;;;5036258;28;20025;-75
2022/07/31 05:04:03;;;;;;;9.80;6.15;;;22.50;81.70;;;;;;5036077;28;20036;-75
2022/07/31 05:06:37;;;;;;;9.95;5.13;;;22.40;81.80;;;;;;5035760;28;20048;-75
2022/07/31 05:09:05;;;;;;;13.77;7.18;;;22.40;82.20;;;;;;5036051;28;20474;-75
2022/07/31 05:11:31;;;;;;;10.27;5.13;;;22.40;82.50;;;;;;5036260;28;20108;-75
2022/07/31 05:13:59;;;;;;;10.45;5.80;;;22.30;82.90;;;;;;5035937;28;20044;-75
2022/07/31 05:16:27;;;;;;;9.50;6.13;;;22.30;83.40;;;;;;5036074;28;20030;-75
2022/07/31 05:18:52;;;;;;;12.30;5.70;;;22.20;83.70;;;;;;5035958;28;20030;-75
2022/07/31 05:21:19;;;;;;;7.75;4.75;;;22.20;84.00;;;;;;5035989;28;20117;-75
2022/07/31 05:23:45;;;;;;;10.32;5.25;;;22.20;83.90;;;;;;5035392;28;20567;-75
2022/07/31 05:26:12;;;;;;;7.65;4.95;;;22.20;84.10;;;;;;5035664;28;20025;-75
2022/07/31 05:28:38;;;;;;;8.18;5.22;;;22.20;84.30;;;;;;5035916;28;20388;-75
2022/07/31 05:31:05;;;;;;;8.70;5.07;;;22.20;84.80;;;;;;5035620;28;20029;-75
2022/07/31 05:33:32;;;;;;;9.05;5.68;;;22.20;84.60;;;;;;5035709;28;20026;-75
2022/07/31 05:35:58;;;;;;;8.75;5.10;;;22.30;85.00;;;;;;5035591;28;20113;-75
2022/07/31 05:38:24;;;;;;;8.48;4.85;;;22.30;85.20;;;;;;5035411;28;20057;-74
2022/07/31 05:40:49;;;;;;;9.75;5.50;;;22.30;85.40;;;;;;5035670;28;20045;-74
2022/07/31 05:43:15;;;;;;;11.95;6.25;;;22.30;85.50;;;;;;5035742;28;20528;-74
2022/07/31 05:45:41;;;;;;;8.93;5.47;;;22.30;85.80;;;;;;5035567;28;20026;-74
2022/07/31 05:48:06;;;;;;;8.73;6.03;;;22.30;86.00;;;;;;5035347;28;20044;-74
2022/07/31 05:50:33;;;;;;;10.10;6.60;;;22.20;86.40;;;;;;5035172;28;20156;-75
2022/07/31 05:52:59;;;;;;;11.93;7.68;;;22.20;86.50;;;;;;5035031;28;20067;-75
2022/07/31 05:55:25;;;;;;;12.30;7.80;;;22.10;86.60;;;;;;5034601;28;20582;-74
2022/07/31 05:57:50;;;;;;;12.05;7.72;;;22.10;87.00;;;;;;5035341;28;20044;-75
2022/07/31 06:00:16;;;;;;;8.90;7.28;;;22.10;87.30;;;;;;5035377;28;20028;-75
2022/07/31 06:02:42;;;;;;;15.88;8.70;;;22.00;87.40;;;;;;5035644;28;20025;-74
2022/07/31 06:05:08;;;;;;;10.95;7.57;;;22.00;87.50;;;;;;5035082;28;20025;-75
2022/07/31 06:07:34;;;;;;;14.98;8.50;;;22.00;87.80;;;;;;5035243;28;20042;-74
2022/07/31 06:10:00;;;;;;;12.20;8.05;;;21.90;87.80;;;;;;5035271;28;20021;-74
2022/07/31 06:12:26;;;;;;;16.30;9.27;;;22.00;87.90;;;;;;5035340;28;20076;-75
2022/07/31 06:14:52;;;;;;;9.95;8.52;;;21.90;88.10;;;;;;5035194;28;20034;-75
2022/07/31 06:17:17;;;;;;;11.00;8.93;;;21.90;88.20;;;;;;5035198;28;20017;-74
2022/07/31 06:19:43;;;;;;;11.82;9.43;;;21.90;88.30;;;;;;5034709;28;20039;-75
2022/07/31 06:22:08;;;;;;;13.63;8.73;;;21.80;88.40;;;;;;5034458;28;20049;-74
2022/07/31 06:24:34;;;;;;;15.20;9.85;;;21.80;88.60;;;;;;5035045;28;20034;-76
2022/07/31 06:27:00;;;;;;;14.43;9.32;;;21.70;88.80;;;;;;5034865;28;20030;-75
2022/07/31 06:29:27;;;;;;;13.05;9.40;;;21.70;89.10;;;;;;5034470;28;20473;-75
2022/07/31 06:31:53;;;;;;;11.68;8.48;;;21.60;89.50;;;;;;5034572;28;20514;-75
2022/07/31 06:34:19;;;;;;;13.55;9.52;;;21.70;89.80;;;;;;5034907;28;20029;-75
2022/07/31 06:36:44;;;;;;;11.07;8.60;;;21.60;89.90;;;;;;5034474;28;20021;-75
2022/07/31 06:39:10;;;;;;;13.07;10.10;;;21.60;90.00;;;;;;5034561;28;20461;-75
2022/07/31 06:41:48;;;;;;;12.57;9.05;;;21.70;90.20;;;;;;5034691;28;20025;-75
2022/07/31 06:44:18;;;;;;;15.52;9.85;;;21.70;90.30;;;;;;5034526;28;20099;-75
2022/07/31 06:46:48;;;;;;;15.63;8.75;;;21.70;90.30;;;;;;5034281;28;20536;-75
2022/07/31 06:49:14;;;;;;;14.60;9.65;;;21.70;90.40;;;;;;5034513;28;20045;-75
2022/07/31 06:51:40;;;;;;;17.10;9.77;;;21.70;90.50;;;;;;5034329;28;20029;-75
2022/07/31 06:54:08;;;;;;;16.40;9.23;;;21.80;90.70;;;;;;5034188;28;20025;-75
2022/07/31 06:56:35;;;;;;;10.60;8.40;;;21.80;90.60;;;;;;5034472;28;20026;-75
2022/07/31 06:59:01;;;;;;;12.93;8.90;;;21.80;90.50;;;;;;5034136;28;20491;-75
2022/07/31 07:01:27;;;;;;;10.45;8.85;;;21.80;90.60;;;;;;5034402;28;20101;-75
2022/07/31 07:03:53;;;;;;;11.93;8.73;;;21.90;90.50;;;;;;5034002;28;20108;-75
2022/07/31 07:06:18;;;;;;;12.50;10.02;;;21.90;90.40;;;;;;5033354;28;20029;-75
2022/07/31 07:08:44;;;;;;;13.35;9.45;;;21.90;90.50;;;;;;5033849;28;20079;-75
2022/07/31 07:11:10;;;;;;;14.13;10.13;;;21.90;90.40;;;;;;5033952;28;20021;-75
2022/07/31 07:13:36;;;;;;;19.23;10.45;;;21.90;90.40;;;;;;5034496;28;20039;-75
2022/07/31 07:16:01;;;;;;;14.35;9.85;;;21.90;90.50;;;;;;5033941;28;20041;-75
2022/07/31 07:18:27;;;;;;;15.65;10.63;;;21.80;90.40;;;;;;5033684;28;20026;-75
2022/07/31 07:20:53;;;;;;;17.70;10.38;;;21.80;90.60;;;;;;5033833;28;20028;-75
2022/07/31 07:23:20;;;;;;;17.38;11.48;;;21.80;90.60;;;;;;5033792;28;20501;-75
2022/07/31 07:25:45;;;;;;;14.52;12.23;;;21.80;90.60;;;;;;5033909;28;20430;-75
2022/07/31 07:28:12;;;;;;;15.82;11.65;;;21.80;90.60;;;;;;5033906;28;20149;-75
2022/07/31 07:30:38;;;;;;;14.73;10.13;;;21.70;90.70;;;;;;5033933;28;20104;-75
2022/07/31 07:33:04;;;;;;;14.70;9.93;;;21.60;90.80;;;;;;5033292;28;20484;-75
2022/07/31 07:35:30;;;;;;;13.52;9.70;;;21.70;91.00;;;;;;5033874;28;20027;-75
2022/07/31 07:37:56;;;;;;;14.07;9.82;;;21.60;91.00;;;;;;5033672;28;20531;-75
2022/07/31 07:40:23;;;;;;;11.73;8.93;;;21.60;91.00;;;;;;5033703;28;20076;-75
2022/07/31 07:42:49;;;;;;;13.40;9.73;;;21.70;91.10;;;;;;5033639;28;20033;-75
2022/07/31 07:45:14;;;;;;;11.80;10.18;;;21.70;91.00;;;;;;5033018;28;20472;-75
2022/07/31 07:47:41;;;;;;;13.60;8.90;;;21.70;91.10;;;;;;5033629;28;20037;-75
2022/07/31 07:50:07;;;;;;;10.18;8.60;;;21.70;91.10;;;;;;5033642;28;20022;-75
2022/07/31 07:52:33;;;;;;;12.48;9.02;;;21.70;91.10;;;;;;5033453;28;20037;-75
2022/07/31 07:54:59;;;;;;;14.48;9.57;;;21.80;91.30;;;;;;5033258;28;20026;-75
2022/07/31 07:57:25;;;;;;;11.38;7.93;;;21.70;91.40;;;;;;5033497;28;20032;-75
2022/07/31 07:59:51;;;;;;;11.77;9.15;;;21.80;91.40;;;;;;5033228;28;20021;-75
2022/07/31 08:02:17;;;;;;;11.55;8.65;;;21.70;91.60;;;;;;5033096;28;20487;-75
2022/07/31 08:04:43;;;;;;;10.70;8.75;;;21.70;91.70;;;;;;5033420;28;20029;-75
2022/07/31 08:07:09;;;;;;;12.23;8.50;;;21.70;91.70;;;;;;5033085;28;20025;-75
2022/07/31 08:09:36;;;;;;;12.40;8.43;;;21.70;91.90;;;;;;5033367;28;20112;-75
2022/07/31 08:12:02;;;;;;;13.63;9.32;;;21.70;92.10;;;;;;5032897;28;20100;-75
2022/07/31 08:14:28;;;;;;;12.85;8.27;;;21.60;92.20;;;;;;5032870;28;20030;-75
2022/07/31 08:16:55;;;;;;;11.93;8.50;;;21.70;92.20;;;;;;5032993;28;20469;-75
2022/07/31 08:19:20;;;;;;;15.35;8.80;;;21.80;92.40;;;;;;5036676;28;20025;-75
2022/07/31 08:21:46;;;;;;;11.93;8.02;;;21.80;92.30;;;;;;5036959;28;20028;-75
2022/07/31 08:24:12;;;;;;;14.32;8.80;;;22.00;92.30;;;;;;5037016;28;20435;-75
2022/07/31 08:29:23;;;;;;;11.35;8.48;;;22.00;92.20;;;;;;5037294;28;20134;-74
2022/07/31 08:31:50;;;;;;;11.93;9.00;;;22.00;92.10;;;;;;5036968;28;20029;-75
2022/07/31 08:34:16;;;;;;;9.18;8.10;;;22.10;92.10;;;;;;5036660;28;20022;-74
2022/07/31 08:36:42;;;;;;;13.65;8.65;;;22.00;92.10;;;;;;5036910;28;20018;-75
2022/07/31 08:39:08;;;;;;;11.60;7.93;;;22.00;92.10;;;;;;5036449;28;20109;-75
2022/07/31 08:41:37;;;;;;;9.73;7.60;;;22.10;92.20;;;;;;5036971;28;20037;-75
2022/07/31 08:44:04;;;;;;;11.18;8.15;;;22.20;92.10;;;;;;5036946;28;20079;-74
2022/07/31 08:46:35;;;;;;;11.20;8.23;;;22.20;92.00;;;;;;5036582;28;20048;-75
2022/07/31 08:49:02;;;;;;;11.07;6.93;;;22.30;92.00;;;;;;5036478;28;20030;-75
2022/07/31 08:51:33;;;;;;;10.15;6.90;;;22.40;92.00;;;;;;5036489;28;20104;-75
2022/07/31 08:54:01;;;;;;;8.77;7.03;;;22.40;91.90;;;;;;5036379;28;20032;-75
2022/07/31 08:56:28;;;;;;;10.68;7.65;;;22.50;91.90;;;;;;5035876;28;20083;-74
2022/07/31 08:58:55;;;;;;;9.82;7.10;;;22.70;91.70;;;;;;5036059;28;20029;-75
2022/07/31 09:01:21;;;;;;;9.90;7.30;;;22.70;91.40;;;;;;5036230;28;20025;-74
2022/07/31 09:03:47;;;;;;;10.95;8.07;;;22.70;91.40;;;;;;5036073;28;20492;-75
2022/07/31 09:06:13;;;;;;;12.43;8.05;;;22.70;91.40;;;;;;5036218;28;20029;-74
2022/07/31 09:08:38;;;;;;;13.52;8.27;;;22.60;91.40;;;;;;5035900;28;20038;-74
2022/07/31 09:11:07;;;;;;;12.25;7.95;;;22.70;91.30;;;;;;5036088;28;20552;-75
2022/07/31 09:13:36;;;;;;;10.65;8.13;;;22.70;91.30;;;;;;5036050;28;20041;-75
2022/07/31 09:16:02;;;;;;;11.27;8.07;;;22.70;91.40;;;;;;5036295;28;20013;-75
2022/07/31 09:18:28;;;;;;;12.88;8.45;;;22.60;91.50;;;;;;5035975;28;20021;-75
2022/07/31 09:20:59;;;;;;;12.73;8.52;;;22.60;91.40;;;;;;5036144;28;20025;-75
2022/07/31 09:23:27;;;;;;;11.10;8.15;;;22.50;91.60;;;;;;5035616;28;20048;-75
2022/07/31 09:26:01;;;;;;;12.73;8.00;;;22.50;91.80;;;;;;5036148;28;20053;-75
2022/07/31 09:28:37;;;;;;;10.57;7.97;;;22.50;91.80;;;;;;5035863;28;20111;-75
2022/07/31 09:31:04;;;;;;;10.80;8.25;;;22.50;91.90;;;;;;5035045;28;20112;-75
2022/07/31 09:33:31;;;;;;;13.25;8.60;;;22.60;92.00;;;;;;5035763;28;20038;-75
2022/07/31 09:35:58;;;;;;;11.63;7.80;;;22.60;92.20;;;;;;5035586;28;20021;-75
2022/07/31 09:38:36;;;;;;;10.95;7.65;;;22.60;92.00;;;;;;5035889;28;20033;-75
2022/07/31 09:41:12;;;;;;;14.82;7.60;;;22.60;92.00;;;;;;5035728;28;20025;-75
2022/07/31 09:43:39;;;;;;;11.20;8.00;;;22.70;92.20;;;;;;5035716;28;20022;-75
2022/07/31 09:46:06;;;;;;;10.40;7.70;;;22.70;92.40;;;;;;5035734;28;20025;-75
2022/07/31 09:48:32;;;;;;;12.98;8.43;;;22.70;92.40;;;;;;5035314;28;20472;-75
2022/07/31 09:51:00;;;;;;;13.63;8.93;;;22.80;92.40;;;;;;5035603;28;20362;-75
2022/07/31 09:53:26;;;;;;;11.02;8.98;;;22.80;92.50;;;;;;5035542;28;20125;-76
2022/07/31 09:55:54;;;;;;;13.90;9.57;;;22.80;92.60;;;;;;5035351;28;20033;-75
2022/07/31 09:58:21;;;;;;;14.07;9.32;;;22.70;92.90;;;;;;5035300;28;20030;-75
2022/07/31 10:00:50;;;;;;;12.65;8.93;;;22.60;93.10;;;;;;5035000;28;20159;-75
2022/07/31 10:03:17;;;;;;;15.07;9.65;;;22.60;93.30;;;;;;5035529;28;20372;-75
2022/07/31 10:05:44;;;;;;;10.77;8.82;;;22.60;93.30;;;;;;5035360;28;20026;-75
2022/07/31 10:08:12;;;;;;;16.60;9.73;;;22.60;93.40;;;;;;5034788;28;20033;-75
2022/07/31 10:10:38;;;;;;;14.95;9.93;;;22.60;93.60;;;;;;5034936;28;20460;-75
2022/07/31 10:13:14;;;;;;;14.32;10.60;;;22.60;94.00;;;;;;5035042;28;20029;-75
2022/07/31 10:15:41;;;;;;;17.55;10.98;;;22.60;94.40;;;;;;5035185;28;20400;-75
2022/07/31 10:18:08;;;;;;;13.60;10.68;;;22.50;94.50;;;;;;5035107;28;20060;-75
2022/07/31 10:20:36;;;;;;;14.30;11.27;;;22.50;94.90;;;;;;5034844;28;20083;-75
2022/07/31 10:23:08;;;;;;;14.32;11.05;;;22.50;95.20;;;;;;5034670;28;20053;-75
2022/07/31 10:25:37;;;;;;;14.05;11.40;;;22.50;95.30;;;;;;5034555;28;20028;-75
2022/07/31 10:28:05;;;;;;;17.35;10.70;;;22.40;95.50;;;;;;5034213;28;20558;-75
2022/07/31 10:30:31;;;;;;;14.88;10.90;;;22.50;95.70;;;;;;5034145;28;20030;-75
2022/07/31 10:32:58;;;;;;;13.10;10.55;;;22.50;95.70;;;;;;5034602;28;20036;-75
2022/07/31 10:35:23;;;;;;;14.55;11.93;;;22.50;95.80;;;;;;5034765;28;20030;-75
2022/07/31 10:38:02;;;;;;;13.95;11.77;;;22.60;95.90;;;;;;5016583;28;20029;-75
2022/07/31 10:40:56;;;;;;;18.73;13.80;;;22.60;95.90;;;;;;5033826;28;20037;-75
2022/07/31 10:43:35;;;;;;;15.40;11.73;;;22.60;96.10;;;;;;5034710;28;20072;-75
2022/07/31 10:46:01;;;;;;;15.43;12.77;;;22.60;96.20;;;;;;5034446;28;20021;-75
2022/07/31 10:48:27;;;;;;;15.90;12.55;;;22.60;96.20;;;;;;5034058;28;20037;-75
2022/07/31 10:51:08;;;;;;;18.35;14.43;;;22.60;96.20;;;;;;5033942;28;20032;-75
2022/07/31 10:53:34;;;;;;;18.25;13.63;;;22.70;96.60;;;;;;5034457;28;20033;-76
2022/07/31 10:56:09;;;;;;;16.90;13.32;;;22.80;96.90;;;;;;5034103;28;20021;-74
2022/07/31 10:58:45;;;;;;;15.90;13.38;;;22.80;96.70;;;;;;5033763;28;20100;-75
2022/07/31 11:01:11;;;;;;;16.45;14.02;;;22.90;96.60;;;;;;5034197;28;20175;-75
2022/07/31 11:03:43;;;;;;;19.27;14.25;;;22.90;96.40;;;;;;5034083;28;20517;-75
2022/07/31 11:06:09;;;;;;;17.05;14.13;;;22.90;95.90;;;;;;5034180;28;20443;-75
2022/07/31 11:08:42;;;;;;;17.08;13.68;;;22.90;95.70;;;;;;5033806;28;20037;-75
2022/07/31 11:11:09;;;;;;;15.30;13.45;;;22.90;95.70;;;;;;5033750;28;20075;-75
2022/07/31 11:13:51;;;;;;;17.08;14.57;;;22.90;95.90;;;;;;5033776;28;20040;-75
2022/07/31 11:16:18;;;;;;;18.23;14.45;;;22.90;95.70;;;;;;5033689;28;20026;-75
2022/07/31 11:18:59;;;;;;;16.00;14.25;;;22.80;95.60;;;;;;5033813;28;20026;-75
2022/07/31 11:21:31;;;;;;;17.52;15.13;;;22.80;96.00;;;;;;5033701;28;20461;-74
2022/07/31 11:23:57;;;;;;;20.38;16.75;;;22.70;96.00;;;;;;5033446;28;20041;-74
2022/07/31 11:26:23;;;;;;;17.95;16.05;;;22.70;96.30;;;;;;5033724;28;20037;-75
2022/07/31 11:28:48;;;;;;;17.10;15.30;;;22.70;96.40;;;;;;5033225;28;20140;-75
2022/07/31 11:31:14;;;;;;;19.50;15.80;;;22.70;96.60;;;;;;5033657;28;20024;-74
2022/07/31 11:33:42;;;;;;;18.25;15.75;;;22.70;96.80;;;;;;5033586;28;20064;-75
2022/07/31 11:36:14;;;;;;;18.55;16.42;;;22.80;97.20;;;;;;5033769;28;20076;-75
2022/07/31 11:38:46;;;;;;;18.25;16.27;;;22.90;97.40;;;;;;5033427;28;20049;-75
2022/07/31 11:41:12;;;;;;;19.00;15.38;;;22.90;97.20;;;;;;5033732;28;20388;-75
2022/07/31 11:43:44;;;;;;;19.15;16.20;;;22.90;97.10;;;;;;5033233;28;20056;-75
2022/07/31 11:46:10;;;;;;;19.15;17.13;;;22.90;97.10;;;;;;5033326;28;20053;-75
2022/07/31 11:48:39;;;;;;;21.58;17.95;;;22.90;97.10;;;;;;5033075;28;20052;-75
2022/07/31 11:51:05;;;;;;;17.02;15.32;;;22.90;97.30;;;;;;5033054;28;20021;-75
2022/07/31 11:53:38;;;;;;;19.30;16.35;;;22.80;97.10;;;;;;5032627;28;20101;-74
2022/07/31 11:56:04;;;;;;;18.65;16.75;;;22.80;96.90;;;;;;5033284;28;20037;-75
2022/07/31 11:58:29;;;;;;;17.33;15.52;;;22.80;96.90;;;;;;5033043;28;20025;-74
2022/07/31 12:01:00;;;;;;;18.02;16.17;;;22.90;97.10;;;;;;5033185;28;20029;-75
2022/07/31 12:03:35;;;;;;;17.20;15.55;;;23.00;96.80;;;;;;5033129;28;20068;-75
2022/07/31 12:06:01;;;;;;;16.58;14.80;;;23.10;96.70;;;;;;5033310;28;20037;-74
2022/07/31 12:08:28;;;;;;;18.48;14.80;;;23.20;96.10;;;;;;5033228;28;20120;-75
2022/07/31 12:10:55;;;;;;;15.73;13.40;;;23.20;96.20;;;;;;5032905;28;20076;-75
2022/07/31 12:13:22;;;;;;;14.80;13.05;;;23.30;96.30;;;;;;5033361;28;20021;-75
2022/07/31 12:16:03;;;;;;;15.85;14.18;;;23.30;96.20;;;;;;5033149;28;20362;-75
2022/07/31 12:18:31;;;;;;;15.18;13.70;;;23.30;95.80;;;;;;5032851;28;20392;-76
2022/07/31 12:21:03;;;;;;;15.20;12.63;;;23.20;95.60;;;;;;5033147;28;20021;-76
2022/07/31 12:23:49;;;;;;;12.50;11.20;;;23.20;95.50;;;;;;5032937;28;20122;-76
2022/07/31 12:26:31;;;;;;;11.10;10.00;;;23.10;95.60;;;;;;5032467;28;20389;-76
2022/07/31 12:29:03;;;;;;;;;;;23.10;95.30;;;;;;5033396;28;20033;-76
2022/07/31 12:31:31;;;;;;;11.73;10.55;;;23.10;95.30;;;;;;5032793;28;19905;-76
2022/07/31 12:33:57;;;;;;;11.07;9.80;;;23.10;95.40;;;;;;5032983;28;20021;-76
2022/07/31 12:36:22;;;;;;;9.82;8.90;;;23.10;95.20;;;;;;5032696;28;20104;-76
2022/07/31 12:38:59;;;;;;;9.85;8.85;;;23.10;95.40;;;;;;5032271;28;20104;-76
2022/07/31 12:41:26;;;;;;;11.57;9.57;;;23.10;95.20;;;;;;5032828;28;20036;-76
2022/07/31 12:43:51;;;;;;;11.80;8.75;;;23.10;95.10;;;;;;5033038;28;20032;-76
2022/07/31 12:46:17;;;;;;;8.98;8.07;;;23.00;95.20;;;;;;5032908;28;20100;-76